createdAt,value
2024-03-26T00:00:45.239Z,999
2024-03-26T00:02:44.848Z,999
2024-03-26T00:04:45.678Z,999
2024-03-26T00:08:44.477Z,999
2024-03-26T00:10:45.329Z,999
2024-03-26T00:12:44.842Z,999
2024-03-26T00:14:44.481Z,999
2024-03-26T00:16:45.775Z,999
2024-03-26T00:22:45.425Z,999
2024-03-26T00:24:44.816Z,999
2024-03-26T00:26:44.507Z,999
2024-03-26T00:28:45.314Z,999
2024-03-26T00:30:44.438Z,999
2024-03-26T00:32:44.488Z,999
2024-03-26T00:34:45.396Z,999
2024-03-26T00:38:44.870Z,999
2024-03-26T00:40:44.960Z,999
2024-03-26T00:42:44.469Z,999
2024-03-26T00:44:44.473Z,998
2024-03-26T00:46:44.960Z,998
2024-03-26T00:48:44.489Z,998
2024-03-26T00:50:44.945Z,998
2024-03-26T00:52:44.924Z,998
2024-03-26T00:54:44.474Z,998
2024-03-26T00:56:44.959Z,998
2024-03-26T00:58:44.931Z,998
2024-03-26T01:00:44.923Z,998
2024-03-26T01:02:44.487Z,998
2024-03-26T01:04:45.000Z,998
2024-03-26T01:06:44.484Z,998
2024-03-26T01:10:44.956Z,998
2024-03-26T01:12:44.467Z,998
2024-03-26T01:14:44.489Z,998
2024-03-26T01:16:45.424Z,998
2024-03-26T01:18:44.911Z,998
2024-03-26T01:20:44.480Z,998
2024-03-26T01:22:44.938Z,998
2024-03-26T01:26:44.863Z,998
2024-03-26T01:28:44.990Z,998
2024-03-26T01:30:44.840Z,998
2024-03-26T01:32:44.523Z,998
2024-03-26T01:34:44.946Z,998
2024-03-26T01:36:44.472Z,998
2024-03-26T01:38:44.469Z,998
2024-03-26T01:40:44.943Z,998
2024-03-26T01:42:44.475Z,998
2024-03-26T01:44:44.505Z,998
2024-03-26T01:46:45.323Z,998
2024-03-26T01:48:44.466Z,998
2024-03-26T01:50:44.485Z,998
2024-03-26T01:52:45.654Z,998
2024-03-26T01:54:44.443Z,998
2024-03-26T01:56:44.500Z,998
2024-03-26T01:58:45.690Z,998
2024-03-26T02:00:44.469Z,998
2024-03-26T02:02:44.931Z,998
2024-03-26T02:04:44.961Z,998
2024-03-26T02:06:44.476Z,998
2024-03-26T02:08:44.484Z,998
2024-03-26T02:12:44.833Z,998
2024-03-26T02:14:44.474Z,998
2024-03-26T02:16:46.207Z,998
2024-03-26T02:18:44.912Z,998
2024-03-26T02:20:45.593Z,998
2024-03-26T02:22:44.939Z,998
2024-03-26T02:24:44.479Z,998
2024-03-26T02:30:44.926Z,998
2024-03-26T02:32:44.531Z,998
2024-03-26T02:36:44.451Z,997
2024-03-26T02:38:44.500Z,997
2024-03-26T02:40:44.941Z,997
2024-03-26T02:42:44.522Z,997
2024-03-26T02:44:45.295Z,997
2024-03-26T02:46:44.949Z,997
2024-03-26T02:50:45.255Z,997
2024-03-26T02:52:44.960Z,997
2024-03-26T02:54:45.238Z,997
2024-03-26T02:56:44.504Z,997
2024-03-26T03:00:44.457Z,997
2024-03-26T03:02:46.921Z,997
2024-03-26T03:04:44.957Z,997
2024-03-26T03:06:44.519Z,997
2024-03-26T03:08:44.499Z,997
2024-03-26T03:10:44.945Z,997
2024-03-26T03:12:44.496Z,997
2024-03-26T03:16:44.944Z,997
2024-03-26T03:18:44.484Z,997
2024-03-26T03:20:44.489Z,997
2024-03-26T03:22:45.406Z,997
2024-03-26T03:24:44.468Z,997
2024-03-26T03:26:44.495Z,997
2024-03-26T03:28:44.959Z,997
2024-03-26T03:30:44.491Z,997
2024-03-26T03:32:44.508Z,997
2024-03-26T03:34:44.939Z,997
2024-03-26T03:38:44.497Z,997
2024-03-26T03:40:45.003Z,997
2024-03-26T03:42:44.575Z,997
2024-03-26T03:44:44.495Z,997
2024-03-26T03:46:44.959Z,997
2024-03-26T03:50:44.562Z,997
2024-03-26T03:54:44.465Z,997
2024-03-26T03:56:44.497Z,997
2024-03-26T03:58:45.413Z,997
2024-03-26T04:00:44.476Z,997
2024-03-26T04:02:44.495Z,997
2024-03-26T04:04:44.956Z,997
2024-03-26T04:06:44.501Z,997
2024-03-26T04:10:45.003Z,997
2024-03-26T04:12:44.502Z,997
2024-03-26T04:14:44.505Z,997
2024-03-26T04:16:44.942Z,997
2024-03-26T04:18:44.506Z,997
2024-03-26T04:20:44.881Z,997
2024-03-26T04:22:44.983Z,997
2024-03-26T04:24:44.506Z,997
2024-03-26T04:26:45.250Z,997
2024-03-26T04:28:45.713Z,996
2024-03-26T04:30:44.478Z,997
2024-03-26T04:32:44.506Z,997
2024-03-26T04:34:44.986Z,996
2024-03-26T04:36:45.220Z,996
2024-03-26T04:38:44.517Z,996
2024-03-26T04:40:45.488Z,997
2024-03-26T04:42:44.482Z,997
2024-03-26T04:44:44.535Z,997
2024-03-26T04:46:44.965Z,997
2024-03-26T04:48:44.507Z,997
2024-03-26T04:50:44.961Z,997
2024-03-26T04:52:44.990Z,997
2024-03-26T04:54:44.495Z,997
2024-03-26T04:56:44.514Z,997
2024-03-26T04:58:45.487Z,997
2024-03-26T05:00:44.485Z,997
2024-03-26T05:04:44.958Z,997
2024-03-26T05:06:44.586Z,997
2024-03-26T05:08:44.870Z,997
2024-03-26T05:10:44.962Z,997
2024-03-26T05:12:44.508Z,997
2024-03-26T05:14:44.510Z,997
2024-03-26T05:16:44.977Z,997
2024-03-26T05:18:44.562Z,997
2024-03-26T05:20:45.227Z,997
2024-03-26T05:22:44.948Z,997
2024-03-26T05:24:44.524Z,997
2024-03-26T05:28:45.000Z,997
2024-03-26T05:30:44.504Z,997
2024-03-26T05:32:44.507Z,997
2024-03-26T05:34:45.328Z,997
2024-03-26T05:36:44.848Z,997
2024-03-26T05:38:44.898Z,997
2024-03-26T05:40:45.366Z,997
2024-03-26T05:42:45.298Z,997
2024-03-26T05:44:44.526Z,997
2024-03-26T05:46:45.618Z,997
2024-03-26T05:48:44.553Z,997
2024-03-26T05:50:45.082Z,997
2024-03-26T05:52:45.623Z,997
2024-03-26T05:54:44.511Z,997
2024-03-26T05:56:44.510Z,997
2024-03-26T06:00:44.486Z,997
2024-03-26T06:02:44.596Z,997
2024-03-26T06:04:44.981Z,997
2024-03-26T06:06:44.569Z,997
2024-03-26T06:08:45.222Z,997
2024-03-26T06:10:44.976Z,997
2024-03-26T06:12:44.537Z,997
2024-03-26T06:14:45.233Z,996
2024-03-26T06:16:44.946Z,996
2024-03-26T06:18:44.518Z,997
2024-03-26T06:20:44.517Z,997
2024-03-26T06:22:44.985Z,997
2024-03-26T06:24:44.970Z,997
2024-03-26T06:26:44.522Z,996
2024-03-26T06:28:45.330Z,996
2024-03-26T06:30:44.570Z,996
2024-03-26T06:32:44.546Z,996
2024-03-26T06:34:44.990Z,996
2024-03-26T06:36:44.514Z,996
2024-03-26T06:38:45.244Z,996
2024-03-26T06:40:45.811Z,996
2024-03-26T06:42:44.878Z,996
2024-03-26T06:44:44.976Z,996
2024-03-26T06:46:45.000Z,996
2024-03-26T06:48:44.584Z,997
2024-03-26T06:50:44.991Z,997
2024-03-26T06:52:45.453Z,996
2024-03-26T06:54:44.543Z,996
2024-03-26T06:56:44.918Z,996
2024-03-26T06:58:45.079Z,996
2024-03-26T07:00:44.544Z,996
2024-03-26T07:02:44.574Z,996
2024-03-26T07:06:44.496Z,996
2024-03-26T07:08:44.519Z,996
2024-03-26T07:10:44.987Z,996
2024-03-26T07:12:44.553Z,996
2024-03-26T07:14:44.526Z,996
2024-03-26T07:16:44.988Z,996
2024-03-26T07:18:47.353Z,996
2024-03-26T07:22:45.717Z,996
2024-03-26T07:24:44.499Z,996
2024-03-26T07:26:44.533Z,996
2024-03-26T07:28:44.983Z,996
2024-03-26T07:30:44.522Z,996
2024-03-26T07:32:44.540Z,996
2024-03-26T07:34:45.482Z,996
2024-03-26T07:36:44.528Z,996
2024-03-26T07:38:44.538Z,996
2024-03-26T07:40:44.992Z,996
2024-03-26T07:42:45.296Z,996
2024-03-26T07:44:44.570Z,996
2024-03-26T07:46:44.972Z,996
2024-03-26T07:48:45.017Z,996
2024-03-26T07:50:44.995Z,996
2024-03-26T07:52:45.072Z,996
2024-03-26T07:54:44.527Z,996
2024-03-26T07:56:44.570Z,996
2024-03-26T07:58:45.457Z,996
2024-03-26T08:00:44.510Z,995
2024-03-26T08:02:44.571Z,996
2024-03-26T08:04:45.043Z,995
2024-03-26T08:06:45.374Z,995
2024-03-26T08:08:44.546Z,995
2024-03-26T08:10:45.026Z,995
2024-03-26T08:12:45.259Z,995
2024-03-26T08:14:44.560Z,995
2024-03-26T08:16:45.033Z,995
2024-03-26T08:18:44.534Z,995
2024-03-26T08:20:44.545Z,995
2024-03-26T08:22:45.494Z,996
2024-03-26T08:24:44.549Z,996
2024-03-26T08:26:44.566Z,996
2024-03-26T08:28:45.495Z,995
2024-03-26T08:30:44.505Z,996
2024-03-26T08:32:44.613Z,996
2024-03-26T08:34:45.471Z,996
2024-03-26T08:36:44.523Z,996
2024-03-26T08:38:44.588Z,996
2024-03-26T08:42:44.551Z,996
2024-03-26T08:44:44.688Z,996
2024-03-26T08:46:45.050Z,996
2024-03-26T08:48:44.542Z,996
2024-03-26T08:50:44.543Z,996
2024-03-26T08:52:45.000Z,996
2024-03-26T08:54:44.568Z,996
2024-03-26T08:56:45.277Z,996
2024-03-26T09:00:44.705Z,996
2024-03-26T09:02:44.562Z,996
2024-03-26T09:04:45.756Z,996
2024-03-26T09:06:44.954Z,996
2024-03-26T09:08:44.557Z,995
2024-03-26T09:10:45.053Z,995
2024-03-26T09:12:44.598Z,996
2024-03-26T09:14:44.537Z,996
2024-03-26T09:16:45.010Z,996
2024-03-26T09:18:45.311Z,996
2024-03-26T09:20:44.553Z,996
2024-03-26T09:22:45.008Z,996
2024-03-26T09:24:49.511Z,996
2024-03-26T09:26:45.272Z,996
2024-03-26T09:28:45.059Z,996
2024-03-26T09:30:44.543Z,996
2024-03-26T09:32:45.299Z,996
2024-03-26T09:34:44.996Z,996
2024-03-26T09:36:44.562Z,996
2024-03-26T09:38:48.173Z,996
2024-03-26T09:40:45.019Z,995
2024-03-26T09:42:44.576Z,995
2024-03-26T09:44:49.827Z,995
2024-03-26T09:46:45.019Z,995
2024-03-26T09:48:44.555Z,995
2024-03-26T09:50:45.021Z,995
2024-03-26T09:52:45.604Z,995
2024-03-26T09:54:44.545Z,995
2024-03-26T09:56:44.552Z,995
2024-03-26T09:58:45.013Z,995
2024-03-26T10:00:44.560Z,995
2024-03-26T10:02:44.550Z,995
2024-03-26T10:04:45.023Z,995
2024-03-26T10:06:44.549Z,995
2024-03-26T10:08:44.562Z,995
2024-03-26T10:10:45.017Z,995
2024-03-26T10:12:44.550Z,995
2024-03-26T10:14:44.603Z,995
2024-03-26T10:16:45.489Z,995
2024-03-26T10:18:44.538Z,995
2024-03-26T10:20:45.293Z,995
2024-03-26T10:22:45.035Z,995
2024-03-26T10:24:44.964Z,995
2024-03-26T10:26:44.546Z,995
2024-03-26T10:28:45.039Z,995
2024-03-26T10:30:45.327Z,995
2024-03-26T10:32:45.004Z,995
2024-03-26T10:34:45.068Z,995
2024-03-26T10:36:44.598Z,995
2024-03-26T10:38:50.931Z,995
2024-03-26T10:40:45.501Z,995
2024-03-26T10:42:44.526Z,995
2024-03-26T10:44:44.556Z,995
2024-03-26T10:46:45.966Z,995
2024-03-26T10:48:50.804Z,995
2024-03-26T10:50:44.559Z,995
2024-03-26T10:52:45.235Z,995
2024-03-26T10:54:44.574Z,994
2024-03-26T10:56:44.575Z,994
2024-03-26T10:58:45.630Z,994
2024-03-26T11:00:44.996Z,994
2024-03-26T11:02:44.573Z,994
2024-03-26T11:04:45.054Z,994
2024-03-26T11:06:45.017Z,994
2024-03-26T11:08:44.556Z,994
2024-03-26T11:10:45.024Z,994
2024-03-26T11:12:44.639Z,994
2024-03-26T11:16:45.032Z,994
2024-03-26T11:18:45.028Z,994
2024-03-26T11:20:44.575Z,994
2024-03-26T11:22:45.059Z,994
2024-03-26T11:24:44.558Z,994
2024-03-26T11:26:44.558Z,994
2024-03-26T11:28:45.098Z,994
2024-03-26T11:30:44.570Z,994
2024-03-26T11:32:45.322Z,994
2024-03-26T11:34:45.080Z,994
2024-03-26T11:36:44.568Z,994
2024-03-26T11:38:44.562Z,994
2024-03-26T11:40:45.103Z,994
2024-03-26T11:42:44.572Z,994
2024-03-26T11:44:44.571Z,994
2024-03-26T11:46:45.627Z,994
2024-03-26T11:48:44.539Z,994
2024-03-26T11:50:44.619Z,994
2024-03-26T11:52:45.037Z,994
2024-03-26T11:54:44.559Z,994
2024-03-26T11:56:44.924Z,994
2024-03-26T11:58:45.050Z,993
2024-03-26T12:00:44.575Z,993
2024-03-26T12:02:44.592Z,993
2024-03-26T12:04:45.493Z,993
2024-03-26T12:06:44.538Z,993
2024-03-26T12:08:44.573Z,993
2024-03-26T12:10:45.050Z,993
2024-03-26T12:12:44.576Z,993
2024-03-26T12:14:44.571Z,993
2024-03-26T12:16:45.019Z,993
2024-03-26T12:18:45.302Z,993
2024-03-26T12:22:45.031Z,993
2024-03-26T12:24:44.965Z,993
2024-03-26T12:30:44.969Z,993
2024-03-26T12:32:45.003Z,993
2024-03-26T12:34:45.057Z,993
2024-03-26T12:36:45.326Z,993
2024-03-26T12:38:44.581Z,993
2024-03-26T12:40:45.298Z,993
2024-03-26T12:42:44.994Z,992
2024-03-26T12:44:44.621Z,992
2024-03-26T12:48:44.549Z,992
2024-03-26T12:50:44.573Z,992
2024-03-26T12:52:45.067Z,992
2024-03-26T12:54:44.584Z,992
2024-03-26T12:56:44.568Z,992
2024-03-26T12:58:45.763Z,992
2024-03-26T13:00:44.940Z,992
2024-03-26T13:02:44.594Z,992
2024-03-26T13:06:44.565Z,992
2024-03-26T13:08:44.580Z,992
2024-03-26T13:10:45.473Z,992
2024-03-26T13:12:44.613Z,992
2024-03-26T13:14:44.693Z,992
2024-03-26T13:16:45.059Z,992
2024-03-26T13:18:44.583Z,992
2024-03-26T13:20:44.580Z,992
2024-03-26T13:22:45.038Z,992
2024-03-26T13:24:44.616Z,992
2024-03-26T13:26:45.042Z,992
2024-03-26T13:28:45.061Z,992
2024-03-26T13:30:45.589Z,992
2024-03-26T13:32:44.680Z,992
2024-03-26T13:34:45.047Z,992
2024-03-26T13:36:44.726Z,992
2024-03-26T13:38:45.711Z,992
2024-03-26T13:40:50.161Z,992
2024-03-26T13:42:44.688Z,992
2024-03-26T13:44:44.685Z,992
2024-03-26T13:46:45.021Z,992
2024-03-26T13:48:44.586Z,991
2024-03-26T13:50:44.653Z,991
2024-03-26T13:52:45.746Z,991
2024-03-26T13:54:44.544Z,991
2024-03-26T13:56:44.566Z,991
2024-03-26T14:00:44.550Z,991
2024-03-26T14:02:44.574Z,991
2024-03-26T14:04:45.024Z,991
2024-03-26T14:06:45.025Z,991
2024-03-26T14:08:45.320Z,991
2024-03-26T14:10:45.050Z,991
2024-03-26T14:12:44.588Z,991
2024-03-26T14:14:44.583Z,991
2024-03-26T14:16:45.071Z,991
2024-03-26T14:18:44.569Z,991
2024-03-26T14:20:44.571Z,991
2024-03-26T14:22:45.045Z,991
2024-03-26T14:28:45.479Z,991
2024-03-26T14:30:44.548Z,991
2024-03-26T14:32:44.587Z,991
2024-03-26T14:34:45.035Z,991
2024-03-26T14:36:44.583Z,991
2024-03-26T14:38:44.939Z,991
2024-03-26T14:40:45.033Z,991
2024-03-26T14:42:45.057Z,991
2024-03-26T14:44:44.585Z,991
2024-03-26T14:46:45.059Z,991
2024-03-26T14:48:44.619Z,991
2024-03-26T14:54:45.397Z,991
2024-03-26T14:56:44.972Z,991
2024-03-26T14:58:45.333Z,991
2024-03-26T15:00:45.041Z,991
2024-03-26T15:02:45.045Z,991
2024-03-26T15:04:44.588Z,991
2024-03-26T15:06:45.033Z,991
2024-03-26T15:08:44.588Z,991
2024-03-26T15:10:44.591Z,991
2024-03-26T15:12:45.042Z,991
2024-03-26T15:14:45.038Z,991
2024-03-26T15:16:44.599Z,991
2024-03-26T15:18:45.027Z,991
2024-03-26T15:20:44.577Z,991
2024-03-26T15:22:44.583Z,991
2024-03-26T15:26:44.557Z,991
2024-03-26T15:28:45.321Z,991
2024-03-26T15:30:45.287Z,991
2024-03-26T15:32:44.601Z,991
2024-03-26T15:34:44.587Z,991
2024-03-26T15:36:45.034Z,991
2024-03-26T15:38:45.301Z,991
2024-03-26T15:40:44.574Z,991
2024-03-26T15:42:45.848Z,991
2024-03-26T15:44:45.301Z,990
2024-03-26T15:46:50.932Z,990
2024-03-26T15:48:45.635Z,990
2024-03-26T15:50:44.631Z,990
2024-03-26T15:52:44.653Z,990
2024-03-26T15:54:45.071Z,990
2024-03-26T15:58:44.593Z,990
2024-03-26T16:00:45.066Z,990
2024-03-26T16:02:44.595Z,990
2024-03-26T16:04:44.584Z,990
2024-03-26T16:06:45.054Z,990
2024-03-26T16:08:44.610Z,990
2024-03-26T16:12:45.044Z,990
2024-03-26T16:14:44.594Z,990
2024-03-26T16:16:44.579Z,990
2024-03-26T16:18:45.058Z,990
2024-03-26T16:20:45.345Z,990
2024-03-26T16:22:45.046Z,990
2024-03-26T16:26:45.067Z,990
2024-03-26T16:28:50.031Z,990
2024-03-26T16:30:44.974Z,990
2024-03-26T16:32:45.071Z,990
2024-03-26T16:34:44.629Z,990
2024-03-26T16:36:44.587Z,990
2024-03-26T16:38:45.081Z,990
2024-03-26T16:40:45.051Z,990
2024-03-26T16:42:44.575Z,990
2024-03-26T16:44:45.422Z,990
2024-03-26T16:46:44.572Z,990
2024-03-26T16:48:44.594Z,990
2024-03-26T16:50:45.054Z,990
2024-03-26T16:54:44.633Z,990
2024-03-26T16:56:45.081Z,990
2024-03-26T16:58:44.584Z,990
2024-03-26T17:00:44.584Z,990
2024-03-26T17:02:45.802Z,990
2024-03-26T17:04:44.554Z,990
2024-03-26T17:06:44.572Z,990
2024-03-26T17:08:45.531Z,990
2024-03-26T17:12:44.589Z,990
2024-03-26T17:14:45.100Z,990
2024-03-26T17:16:59.191Z,990
2024-03-26T17:18:44.585Z,990
2024-03-26T17:20:45.068Z,990
2024-03-26T17:22:45.042Z,990
2024-03-26T17:24:44.601Z,990
2024-03-26T17:26:45.424Z,990
2024-03-26T17:28:45.280Z,990
2024-03-26T17:30:45.391Z,990
2024-03-26T17:34:44.570Z,990
2024-03-26T17:36:44.602Z,990
2024-03-26T17:38:45.049Z,990
2024-03-26T17:40:44.630Z,990
2024-03-26T17:42:44.593Z,990
2024-03-26T17:44:45.523Z,990
2024-03-26T17:46:44.560Z,990
2024-03-26T17:48:45.301Z,990
2024-03-26T17:54:44.957Z,990
2024-03-26T17:56:45.064Z,990
2024-03-26T17:58:44.588Z,990
2024-03-26T18:00:44.663Z,990
2024-03-26T18:02:45.070Z,990
2024-03-26T18:04:44.593Z,990
2024-03-26T18:06:45.065Z,990
2024-03-26T18:08:45.524Z,990
2024-03-26T18:10:45.024Z,990
2024-03-26T18:12:45.326Z,990
2024-03-26T18:16:44.566Z,990
2024-03-26T18:18:44.595Z,990
2024-03-26T18:20:45.063Z,990
2024-03-26T18:22:44.593Z,990
2024-03-26T18:26:45.070Z,990
2024-03-26T18:28:45.064Z,990
2024-03-26T18:34:44.599Z,990
2024-03-26T18:36:44.601Z,990
2024-03-26T18:38:45.047Z,990
2024-03-26T18:40:44.600Z,990
2024-03-26T18:42:44.604Z,990
2024-03-26T18:44:45.803Z,990
2024-03-26T18:46:45.660Z,990
2024-03-26T18:48:44.969Z,990
2024-03-26T18:50:45.068Z,990
2024-03-26T18:54:44.595Z,990
2024-03-26T18:56:45.045Z,990
2024-03-26T18:58:44.598Z,990
2024-03-26T19:00:44.600Z,990
2024-03-26T19:02:45.518Z,990
2024-03-26T19:04:44.636Z,990
2024-03-26T19:06:45.054Z,990
2024-03-26T19:08:45.520Z,990
2024-03-26T19:10:44.571Z,990
2024-03-26T19:12:44.589Z,990
2024-03-26T19:14:45.100Z,990
2024-03-26T19:16:44.611Z,989
2024-03-26T19:18:45.044Z,989
2024-03-26T19:20:45.056Z,989
2024-03-26T19:22:44.605Z,989
2024-03-26T19:24:44.607Z,989
2024-03-26T19:26:45.066Z,989
2024-03-26T19:28:45.058Z,989
2024-03-26T19:30:45.058Z,989
2024-03-26T19:32:45.072Z,989
2024-03-26T19:36:44.953Z,989
2024-03-26T19:38:45.055Z,989
2024-03-26T19:42:44.604Z,989
2024-03-26T19:44:45.419Z,989
2024-03-26T19:46:44.575Z,989
2024-03-26T19:48:44.612Z,989
2024-03-26T19:50:45.048Z,989
2024-03-26T19:52:44.592Z,989
2024-03-26T19:54:44.978Z,989
2024-03-26T19:56:45.075Z,989
2024-03-26T19:58:44.615Z,989
2024-03-26T20:00:44.955Z,989
2024-03-26T20:02:45.081Z,989
2024-03-26T20:04:44.604Z,989
2024-03-26T20:06:44.950Z,989
2024-03-26T20:08:45.718Z,989
2024-03-26T20:12:45.334Z,989
2024-03-26T20:14:45.425Z,989
2024-03-26T20:16:44.575Z,989
2024-03-26T20:18:44.600Z,989
2024-03-26T20:20:45.055Z,989
2024-03-26T20:22:44.607Z,989
2024-03-26T20:24:44.605Z,989
2024-03-26T20:26:45.048Z,989
2024-03-26T20:28:45.319Z,989
2024-03-26T20:30:45.062Z,989
2024-03-26T20:32:45.076Z,989
2024-03-26T20:34:44.594Z,989
2024-03-26T20:36:44.960Z,989
2024-03-26T20:38:45.080Z,989
2024-03-26T20:40:45.453Z,989
2024-03-26T20:42:44.585Z,989
2024-03-26T20:44:45.521Z,989
2024-03-26T20:46:44.582Z,989
2024-03-26T20:48:44.948Z,989
2024-03-26T20:52:45.036Z,989
2024-03-26T20:54:44.627Z,989
2024-03-26T20:56:45.427Z,989
2024-03-26T20:58:44.574Z,989
2024-03-26T21:00:44.859Z,989
2024-03-26T21:02:45.075Z,989
2024-03-26T21:04:44.607Z,989
2024-03-26T21:06:44.607Z,989
2024-03-26T21:08:45.069Z,989
2024-03-26T21:10:44.615Z,989
2024-03-26T21:12:45.082Z,989
2024-03-26T21:14:45.075Z,989
2024-03-26T21:16:44.618Z,989
2024-03-26T21:18:44.606Z,989
2024-03-26T21:20:45.130Z,989
2024-03-26T21:22:44.616Z,989
2024-03-26T21:24:44.661Z,989
2024-03-26T21:26:45.074Z,989
2024-03-26T21:28:44.605Z,989
2024-03-26T21:30:44.610Z,989
2024-03-26T21:32:45.784Z,989
2024-03-26T21:34:44.947Z,989
2024-03-26T21:36:44.636Z,989
2024-03-26T21:38:45.095Z,989
2024-03-26T21:40:44.608Z,989
2024-03-26T21:42:44.614Z,989
2024-03-26T21:44:45.466Z,989
2024-03-26T21:46:44.948Z,989
2024-03-26T21:48:44.622Z,989
2024-03-26T21:50:45.795Z,989
2024-03-26T21:52:44.599Z,989
2024-03-26T21:54:44.612Z,989
2024-03-26T21:56:45.082Z,989
2024-03-26T21:58:44.608Z,989
2024-03-26T22:00:45.083Z,989
2024-03-26T22:04:45.068Z,989
2024-03-26T22:06:45.323Z,989
2024-03-26T22:08:44.628Z,989
2024-03-26T22:10:45.564Z,989
2024-03-26T22:12:44.592Z,989
2024-03-26T22:14:45.329Z,989
2024-03-26T22:16:45.536Z,989
2024-03-26T22:18:44.584Z,989
2024-03-26T22:20:44.965Z,989
2024-03-26T22:22:45.062Z,989
2024-03-26T22:26:44.614Z,989
2024-03-26T22:28:45.091Z,989
2024-03-26T22:30:45.337Z,989
2024-03-26T22:32:44.953Z,989
2024-03-26T22:34:45.457Z,989
2024-03-26T22:38:44.941Z,989
2024-03-26T22:40:45.424Z,989
2024-03-26T22:44:45.374Z,989
2024-03-26T22:46:45.640Z,989
2024-03-26T22:48:44.914Z,989
2024-03-26T22:50:45.914Z,989
2024-03-26T22:52:45.532Z,989
2024-03-26T22:54:45.051Z,989
2024-03-26T22:56:44.954Z,989
2024-03-26T22:58:45.580Z,989
2024-03-26T23:00:45.339Z,989
2024-03-26T23:02:45.348Z,989
2024-03-26T23:04:45.965Z,989
2024-03-26T23:06:44.668Z,989
2024-03-26T23:08:45.235Z,989
2024-03-26T23:10:45.601Z,989
2024-03-26T23:12:45.740Z,989
2024-03-26T23:18:45.032Z,989
2024-03-26T23:20:45.338Z,989
2024-03-26T23:22:45.727Z,989
2024-03-26T23:24:45.220Z,989
2024-03-26T23:28:46.175Z,989
2024-03-26T23:30:45.061Z,989
2024-03-26T23:32:45.407Z,989
2024-03-26T23:34:45.504Z,989
2024-03-26T23:36:45.172Z,989
2024-03-26T23:38:45.011Z,989
2024-03-26T23:42:44.740Z,989
2024-03-26T23:44:45.819Z,989
2024-03-26T23:46:45.358Z,989
2024-03-26T23:48:45.208Z,989
2024-03-26T23:50:45.613Z,989
2024-03-26T23:52:46.176Z,989
2024-03-26T23:56:45.028Z,989
2024-03-26T23:58:46.052Z,989
